SYNOP

Station Code SYNOP
43555
AAXX 15154 43555 42475 32507 10292 20241 30101 40103 82201 333 59003 82818 83078=
43533
AAXX 15154 43533 42470 62704 10284 20254 30099 40101 82202 333 59005 82818 85077=
43577
AAXX 15154 43577 42465 22304 10288 20238 30110 40112 81202 333 58002 81818=
43588
AAXX 15154 43588 42470 32504 10280 20239 30110 40111 82201 333 58000 82818=
43599
AAXX 15154 43599 42462 33203 10284 20243 30111 40113 82201 333 59001 82818=
Last Updated : 2021-04-15 20:00:06